Главная страница
METAR-TAF:

METAR-TAF

Аэропорты :

Актобе, Казахстан

широта: 50-17N, долгота: 057-09E, высота над уровнем моря: 227 м

Текущие метеонаблюдения

Эта сводка был подготовлена 11 минут назад, в 03:00 UTC
Ветер 4 Узел от юго-восточный
Температура 16°C
Влажность 63%
Давление 1018 hPa
Видимость 10 км и более
Нет облачности ниже 1500 м, и нет кучево-дождевой облачности

METAR: UATT 170300Z 13002MPS CAVOK 16/09 Q1018 R13/70D NOSIG RMK QFE743/0991

Время: 08:11 (03:11 UTC)

Прогноз

Эта сводка был подготовлена 4 часа и 11 минут назад, в 23:00 UTC
Прогноз действительный с 17-го 00 UTC до 17-го 24 UTC
Ветер 10 Узел от южный
Видимость: 5000 м
дым
С 17-го 0500 UTC
Ветер 10 Узел от западный
Видимость 10 км и более
Нет облачности ниже 1500 м, и нет кучево-дождевой облачности
временами
С 17-го 18 UTC до 17-го 24 UTC
Ветер 10 Узел от южный-юго-западный
Видимость: 5000 м
дым

TAF: UATT 162300Z 1700/1724 18005MPS 5000 FU NSC TX29/1711Z TN12/1701Z FM170500 27005MPS CAVOK TEMPO 1718/1724 21005MPS 5000 FU

Метеонаблюдения и прогнозы для более 4000 аэропортов (сводки METAR и TAF).

Имеющиеся станции представлены на карте желтыми и красными точками.

Чтобы увидеть название станции, наведите на нее мышь.

Затем щелкните, чтобы увидеть метеонаблюдения и метеопрогнозы.

Управление картой: чтобы увеличить масштаб, щелкните зеленые кнопки с черным крестиком; чтобы уменьшить масштаб, щелкните зеленую кнопку с тире; для просмотра соседних карт щелкайте зеленые стрелки.


METAR-TAF: